createdAt,value
2022-12-20T00:03:03.267Z,-24.29
2022-12-20T00:06:08.000Z,-23.76
2022-12-20T00:09:13.088Z,-22.99
2022-12-20T00:12:18.290Z,-23.21
2022-12-20T00:15:22.938Z,-22.91
2022-12-20T00:18:27.374Z,-22.16
2022-12-20T00:21:32.817Z,-21.62
2022-12-20T00:24:37.613Z,-22.23
2022-12-20T00:27:41.834Z,-21.46
2022-12-20T00:30:46.430Z,-21.52
2022-12-20T00:33:53.020Z,-20.87
2022-12-20T00:36:57.595Z,-20.63
2022-12-20T00:40:02.186Z,-20.02
2022-12-20T00:43:07.715Z,-18.13
2022-12-20T00:46:17.149Z,-17.90
2022-12-20T00:49:22.059Z,-17.20
2022-12-20T00:52:26.428Z,-17.74
2022-12-20T00:55:32.234Z,-17.24
2022-12-20T00:58:39.736Z,-16.86
2022-12-20T01:01:44.724Z,-17.09
2022-12-20T01:04:51.116Z,-16.99
2022-12-20T01:07:55.505Z,-16.65
2022-12-20T01:11:24.854Z,-17.23
2022-12-20T01:14:29.333Z,-16.93
2022-12-20T01:17:33.878Z,-17.35
2022-12-20T01:20:38.278Z,-17.20
2022-12-20T01:23:43.203Z,-16.94
2022-12-20T01:26:48.768Z,-16.37
2022-12-20T01:29:53.189Z,-15.71
2022-12-20T01:32:57.548Z,-15.21
2022-12-20T01:36:05.699Z,-14.49
2022-12-20T01:39:16.572Z,-13.86
2022-12-20T01:42:20.821Z,-12.96
2022-12-20T01:45:32.011Z,-13.18
2022-12-20T01:48:37.112Z,-12.85
2022-12-20T01:51:50.754Z,-13.50
2022-12-20T01:55:10.066Z,-14.53
2022-12-20T01:58:15.990Z,-13.88
2022-12-20T02:01:20.725Z,-13.40
2022-12-20T02:04:25.779Z,-13.18
2022-12-20T02:07:34.871Z,-13.18
2022-12-20T02:11:07.618Z,-13.13
2022-12-20T02:14:43.653Z,-13.46
2022-12-20T02:17:57.028Z,-13.41
2022-12-20T02:21:28.974Z,-13.38
2022-12-20T02:25:14.560Z,-13.45
2022-12-20T02:29:18.314Z,-13.91
2022-12-20T02:32:29.901Z,-14.02
2022-12-20T02:35:37.552Z,-13.77
2022-12-20T02:38:42.853Z,-13.87
2022-12-20T02:41:54.797Z,-14.09
2022-12-20T02:45:23.046Z,-14.52
2022-12-20T02:48:30.886Z,-14.28
2022-12-20T02:51:37.771Z,-14.20
2022-12-20T02:54:42.625Z,-14.20
2022-12-20T02:58:07.117Z,-14.73
2022-12-20T03:01:18.693Z,-15.20
2022-12-20T03:04:27.970Z,-14.82
2022-12-20T03:07:36.549Z,-14.90
2022-12-20T03:10:41.239Z,-15.12
2022-12-20T03:13:45.874Z,-15.01
2022-12-20T03:16:50.485Z,-14.69
2022-12-20T03:19:55.513Z,-14.60
2022-12-20T03:23:00.281Z,-14.47
2022-12-20T03:26:05.339Z,-14.77
2022-12-20T03:29:18.676Z,-14.96
2022-12-20T03:32:24.139Z,-14.89
2022-12-20T03:35:28.794Z,-14.98
2022-12-20T03:38:33.161Z,-15.02
2022-12-20T03:41:37.970Z,-15.21
2022-12-20T03:44:44.393Z,-15.02
2022-12-20T03:47:49.024Z,-15.49
2022-12-20T03:50:53.658Z,-15.44
2022-12-20T03:53:58.391Z,-15.44
2022-12-20T03:57:17.567Z,-14.63
2022-12-20T04:00:24.534Z,-15.09
2022-12-20T04:03:36.559Z,-14.94
2022-12-20T04:06:41.672Z,-15.47
2022-12-20T04:09:46.212Z,-15.52
2022-12-20T04:12:53.771Z,-15.61
2022-12-20T04:16:00.944Z,-15.16
2022-12-20T04:19:09.673Z,-15.05
2022-12-20T04:22:18.132Z,-14.94
2022-12-20T04:25:28.673Z,-15.22
2022-12-20T04:28:33.494Z,-15.35
2022-12-20T04:31:38.396Z,-15.18
2022-12-20T04:34:42.904Z,-15.01
2022-12-20T04:37:48.390Z,-15.32
2022-12-20T04:40:53.939Z,-14.95
2022-12-20T04:44:00.449Z,-15.36
2022-12-20T04:47:13.576Z,-15.31
2022-12-20T04:50:19.976Z,-15.37
2022-12-20T04:53:44.001Z,-15.40
2022-12-20T04:56:49.139Z,-15.20
2022-12-20T04:59:58.128Z,-15.14
2022-12-20T05:03:02.743Z,-15.74
2022-12-20T05:06:08.362Z,-15.47
2022-12-20T05:09:14.371Z,-16.01
2022-12-20T05:12:18.894Z,-16.04
2022-12-20T05:15:23.535Z,-15.78
2022-12-20T05:18:30.076Z,-15.69
2022-12-20T05:21:56.780Z,-15.81
2022-12-20T05:25:20.195Z,-15.21
2022-12-20T05:28:26.540Z,-15.40
2022-12-20T05:31:31.148Z,-15.74
2022-12-20T05:34:36.275Z,-16.13
2022-12-20T05:37:41.257Z,-16.12
2022-12-20T05:40:53.114Z,-15.68
2022-12-20T05:43:57.609Z,-15.41
2022-12-20T05:47:02.831Z,-15.34
2022-12-20T05:50:16.675Z,-15.57
2022-12-20T05:53:43.536Z,-15.74
2022-12-20T05:56:48.351Z,-15.85
2022-12-20T05:59:57.248Z,-15.98
2022-12-20T06:03:02.949Z,-16.41
2022-12-20T06:06:13.953Z,-16.20
2022-12-20T06:09:20.482Z,-15.67
2022-12-20T06:12:39.776Z,-15.94
2022-12-20T06:15:44.898Z,-16.11
2022-12-20T06:18:49.420Z,-15.86
2022-12-20T06:21:54.761Z,-15.89
2022-12-20T06:25:10.331Z,-15.90
2022-12-20T06:28:22.512Z,-16.32
2022-12-20T06:31:27.601Z,-16.23
2022-12-20T06:34:36.107Z,-16.15
2022-12-20T06:37:41.449Z,-16.20
2022-12-20T06:40:45.985Z,-16.18
2022-12-20T06:43:50.469Z,-16.19
2022-12-20T06:46:55.456Z,-16.33
2022-12-20T06:50:00.998Z,-16.36
2022-12-20T06:53:07.799Z,-16.48
2022-12-20T06:56:13.328Z,-16.70
2022-12-20T06:59:18.670Z,-16.84
2022-12-20T07:02:25.324Z,-16.90
2022-12-20T07:05:32.107Z,-16.99
2022-12-20T07:08:37.036Z,-17.15
2022-12-20T07:11:41.670Z,-17.32
2022-12-20T07:14:46.180Z,-17.45
2022-12-20T07:17:50.493Z,-17.32
2022-12-20T07:20:55.061Z,-17.71
2022-12-20T07:23:59.504Z,-17.62
2022-12-20T07:27:04.179Z,-17.72
2022-12-20T07:30:09.433Z,-18.07
2022-12-20T07:33:14.033Z,-18.17
2022-12-20T07:36:18.716Z,-18.14
2022-12-20T07:39:23.232Z,-18.23
2022-12-20T07:42:35.555Z,-17.80
2022-12-20T07:45:41.487Z,-17.81
2022-12-20T07:48:46.686Z,-18.15
2022-12-20T07:51:53.661Z,-18.43
2022-12-20T07:55:03.003Z,-18.44
2022-12-20T07:58:10.899Z,-18.80
2022-12-20T08:01:15.793Z,-19.31
2022-12-20T08:04:25.071Z,-19.34
2022-12-20T08:07:31.785Z,-19.47
2022-12-20T08:10:38.091Z,-19.30
2022-12-20T08:13:46.565Z,-19.42
2022-12-20T08:16:52.032Z,-19.31
2022-12-20T08:19:58.434Z,-19.52
2022-12-20T08:23:05.627Z,-19.55
2022-12-20T08:26:10.239Z,-19.32
2022-12-20T08:29:14.931Z,-19.30
2022-12-20T08:32:19.436Z,-19.83
2022-12-20T08:35:24.992Z,-19.91
2022-12-20T08:38:30.843Z,-20.17
2022-12-20T08:41:38.883Z,-20.43
2022-12-20T08:44:43.481Z,-20.44
2022-12-20T08:47:48.748Z,-20.55
2022-12-20T08:50:57.042Z,-20.77
2022-12-20T08:54:01.640Z,-20.65
2022-12-20T08:57:05.888Z,-20.97
2022-12-20T09:00:11.165Z,-21.14
2022-12-20T09:03:16.239Z,-21.35
2022-12-20T09:06:21.753Z,-21.30
2022-12-20T09:09:26.250Z,-21.09
2022-12-20T09:12:30.983Z,-21.21
2022-12-20T09:15:36.975Z,-21.37
2022-12-20T09:18:42.262Z,-21.34
2022-12-20T09:21:48.289Z,-21.78
2022-12-20T09:24:52.852Z,-21.65
2022-12-20T09:27:57.399Z,-21.47
2022-12-20T09:31:07.495Z,-21.72
2022-12-20T09:34:12.443Z,-22.33
2022-12-20T09:37:16.953Z,-22.35
2022-12-20T09:40:25.603Z,-22.22
2022-12-20T09:43:30.935Z,-22.21
2022-12-20T09:46:35.873Z,-22.50
2022-12-20T09:49:45.575Z,-22.35
2022-12-20T09:53:18.749Z,-22.59
2022-12-20T09:56:29.598Z,-22.31
2022-12-20T09:59:40.361Z,-22.42
2022-12-20T10:03:06.573Z,-22.40
2022-12-20T10:06:32.308Z,-22.80
2022-12-20T10:09:55.369Z,-22.42
2022-12-20T10:13:06.104Z,-22.45
2022-12-20T10:16:37.808Z,-22.95
2022-12-20T10:20:07.460Z,-22.53
2022-12-20T10:23:30.917Z,-22.67
2022-12-20T10:26:37.168Z,-22.89
2022-12-20T10:29:42.216Z,-23.03
2022-12-20T10:32:48.592Z,-22.84
2022-12-20T10:35:53.204Z,-22.63
2022-12-20T10:39:00.527Z,-22.55
2022-12-20T10:42:05.449Z,-22.91
2022-12-20T10:45:36.614Z,-22.79
2022-12-20T10:48:44.045Z,-23.02
2022-12-20T10:51:58.558Z,-23.10
2022-12-20T10:55:03.515Z,-22.95
2022-12-20T10:58:31.209Z,-23.65
2022-12-20T11:01:38.534Z,-23.77
2022-12-20T11:04:43.024Z,-23.57
2022-12-20T11:11:26.213Z,-23.54
2022-12-20T11:14:38.698Z,-23.58
2022-12-20T11:17:49.742Z,-23.54
2022-12-20T11:21:05.949Z,-23.59
2022-12-20T11:24:36.698Z,-23.99
2022-12-20T11:28:07.576Z,-23.91
2022-12-20T11:31:24.989Z,-24.02
2022-12-20T11:35:08.491Z,-23.95
2022-12-20T11:38:33.269Z,-23.99
2022-12-20T11:42:12.669Z,-23.67
2022-12-20T11:45:55.344Z,-24.53
2022-12-20T11:49:21.096Z,-24.66
2022-12-20T11:52:40.412Z,-24.52
2022-12-20T11:55:50.691Z,-24.40
2022-12-20T11:59:13.948Z,-24.00
2022-12-20T12:02:44.592Z,-24.13
2022-12-20T12:05:56.808Z,-23.92
2022-12-20T12:09:07.171Z,-23.66
2022-12-20T12:12:19.588Z,-23.99
2022-12-20T12:15:40.827Z,-23.96
2022-12-20T12:18:46.228Z,-24.61
2022-12-20T12:22:07.595Z,-23.77
2022-12-20T12:25:18.770Z,-24.05
2022-12-20T12:28:24.871Z,-23.93
2022-12-20T12:31:34.384Z,-24.36
2022-12-20T12:35:07.162Z,-24.24
2022-12-20T12:38:29.783Z,-23.95
2022-12-20T12:41:59.950Z,-24.50
2022-12-20T12:45:19.414Z,-24.52
2022-12-20T12:48:28.953Z,-25.09
2022-12-20T12:51:44.616Z,-25.03
2022-12-20T12:54:49.404Z,-24.96
2022-12-20T12:57:58.818Z,-24.82
2022-12-20T13:01:06.279Z,-24.43
2022-12-20T13:04:23.991Z,-25.53
2022-12-20T13:07:32.842Z,-25.23
2022-12-20T13:10:38.023Z,-24.97
2022-12-20T13:13:42.701Z,-24.85
2022-12-20T13:17:11.677Z,-24.14
2022-12-20T13:20:20.428Z,-24.80
2022-12-20T13:23:25.077Z,-24.44
2022-12-20T13:26:55.595Z,-25.19
2022-12-20T13:30:10.944Z,-25.06
2022-12-20T13:33:24.941Z,-24.79
2022-12-20T13:36:36.717Z,-25.32
2022-12-20T13:39:41.322Z,-25.57
2022-12-20T13:42:46.437Z,-24.64
2022-12-20T13:46:22.676Z,-24.74
2022-12-20T13:49:43.883Z,-25.38
2022-12-20T13:52:49.874Z,-25.22
2022-12-20T13:55:55.481Z,-24.82
2022-12-20T13:59:32.870Z,-24.73
2022-12-20T14:02:43.293Z,-25.08
2022-12-20T14:05:48.542Z,-25.24
2022-12-20T14:08:54.185Z,-25.19
2022-12-20T14:12:21.173Z,-25.22
2022-12-20T14:15:34.720Z,-25.40
2022-12-20T14:18:39.397Z,-25.12
2022-12-20T14:21:48.110Z,-25.24
2022-12-20T14:24:52.613Z,-25.05
2022-12-20T14:27:58.039Z,-24.98
2022-12-20T14:31:23.693Z,-25.38
2022-12-20T14:34:33.148Z,-25.59
2022-12-20T14:37:42.288Z,-25.72
2022-12-20T14:40:53.610Z,-25.35
2022-12-20T14:44:04.108Z,-25.30
2022-12-20T14:47:28.927Z,-25.39
2022-12-20T14:50:38.251Z,-25.36
2022-12-20T14:53:47.040Z,-25.66
2022-12-20T14:56:53.209Z,-25.49
2022-12-20T15:00:18.732Z,-25.73
2022-12-20T15:03:24.583Z,-25.96
2022-12-20T15:06:42.540Z,-25.91
2022-12-20T15:09:46.952Z,-25.83
2022-12-20T15:12:51.426Z,-25.89
2022-12-20T15:15:59.288Z,-25.95
2022-12-20T15:19:04.300Z,-26.45
2022-12-20T15:22:16.898Z,-26.18
2022-12-20T15:25:21.179Z,-25.77
2022-12-20T15:28:27.957Z,-25.64
2022-12-20T15:31:36.245Z,-25.69
2022-12-20T15:34:41.329Z,-25.99
2022-12-20T15:37:45.961Z,-26.15
2022-12-20T15:40:51.865Z,-26.13
2022-12-20T15:44:40.112Z,-26.65
2022-12-20T15:47:44.513Z,-26.81
2022-12-20T15:50:54.421Z,-27.05
2022-12-20T15:54:00.130Z,-26.85
2022-12-20T15:57:10.345Z,-26.74
2022-12-20T16:00:15.246Z,-26.47
2022-12-20T16:03:24.886Z,-26.38
2022-12-20T16:06:29.486Z,-26.43
2022-12-20T16:09:33.566Z,-26.25
2022-12-20T16:12:38.323Z,-26.32
2022-12-20T16:15:43.108Z,-26.26
2022-12-20T16:18:47.888Z,-26.31
2022-12-20T16:21:53.641Z,-26.35
2022-12-20T16:24:58.320Z,-26.55
2022-12-20T16:28:02.368Z,-25.97
2022-12-20T16:31:26.762Z,-25.83
2022-12-20T16:34:31.218Z,-25.92
2022-12-20T16:37:39.012Z,-25.99
2022-12-20T16:40:43.955Z,-26.05
2022-12-20T16:43:50.040Z,-26.17
2022-12-20T16:46:54.609Z,-26.66
2022-12-20T16:49:58.672Z,-26.65
2022-12-20T16:53:03.301Z,-26.67
2022-12-20T16:56:09.287Z,-26.56
2022-12-20T16:59:22.747Z,-26.33
2022-12-20T17:02:30.181Z,-26.71
2022-12-20T17:05:37.801Z,-26.43
2022-12-20T17:08:54.938Z,-26.84
2022-12-20T17:12:00.620Z,-26.69
2022-12-20T17:15:05.752Z,-27.27
2022-12-20T17:18:10.561Z,-27.21
2022-12-20T17:21:23.485Z,-27.37
2022-12-20T17:24:28.236Z,-27.31
2022-12-20T17:27:32.844Z,-27.26
2022-12-20T17:30:36.871Z,-27.01
2022-12-20T17:33:41.270Z,-26.82
2022-12-20T17:36:45.982Z,-26.82
2022-12-20T17:39:50.653Z,-27.00
2022-12-20T17:42:55.683Z,-26.65
2022-12-20T17:46:03.497Z,-26.79
2022-12-20T17:49:07.805Z,-26.76
2022-12-20T17:52:16.422Z,-26.47
2022-12-20T17:55:27.880Z,-26.45
2022-12-20T17:58:32.201Z,-26.73
2022-12-20T18:01:39.411Z,-26.61
2022-12-20T18:04:45.694Z,-26.80
2022-12-20T18:07:53.181Z,-27.12
2022-12-20T18:10:59.864Z,-26.72
2022-12-20T18:14:04.456Z,-26.75
2022-12-20T18:17:08.749Z,-26.79
2022-12-20T18:20:13.819Z,-26.96
2022-12-20T18:23:18.455Z,-27.12
2022-12-20T18:26:24.698Z,-27.22
2022-12-20T18:29:30.137Z,-27.08
2022-12-20T18:32:34.984Z,-27.31
2022-12-20T18:35:39.147Z,-27.42
2022-12-20T18:38:45.550Z,-27.61
2022-12-20T18:41:50.020Z,-27.61
2022-12-20T18:44:54.765Z,-27.28
2022-12-20T18:47:59.235Z,-27.17
2022-12-20T18:51:15.012Z,-26.96
2022-12-20T18:54:19.396Z,-26.77
2022-12-20T18:57:23.783Z,-26.42
2022-12-20T19:00:28.179Z,-26.28
2022-12-20T19:03:33.291Z,-26.07
2022-12-20T19:06:38.696Z,-26.39
2022-12-20T19:09:43.455Z,-26.38
2022-12-20T19:12:48.831Z,-26.61
2022-12-20T19:16:01.407Z,-26.60
2022-12-20T19:19:06.051Z,-26.65
2022-12-20T19:22:12.806Z,-26.48
2022-12-20T19:25:17.446Z,-26.17
2022-12-20T19:28:21.889Z,-26.15
2022-12-20T19:31:28.050Z,-26.12
2022-12-20T19:34:32.538Z,-26.30
2022-12-20T19:37:37.623Z,-26.51
2022-12-20T19:40:42.470Z,-26.68
2022-12-20T19:43:48.017Z,-26.64
2022-12-20T19:46:52.536Z,-26.55
2022-12-20T19:49:56.637Z,-26.43
2022-12-20T19:53:04.137Z,-26.24
2022-12-20T19:56:14.019Z,-26.30
2022-12-20T19:59:18.325Z,-26.52
2022-12-20T20:02:22.954Z,-26.60
2022-12-20T20:05:27.782Z,-26.75
2022-12-20T20:08:33.468Z,-26.99
2022-12-20T20:11:38.052Z,-26.91
2022-12-20T20:14:43.392Z,-26.97
2022-12-20T20:17:48.093Z,-26.73
2022-12-20T20:20:53.313Z,-26.50
2022-12-20T20:23:58.196Z,-26.35
2022-12-20T20:27:02.619Z,-26.12
2022-12-20T20:30:08.029Z,-26.54
2022-12-20T20:33:13.296Z,-26.69
2022-12-20T20:36:21.578Z,-26.60
2022-12-20T20:39:26.132Z,-27.00
2022-12-20T20:42:30.372Z,-27.06
2022-12-20T20:45:34.802Z,-26.78
2022-12-20T20:48:39.360Z,-27.20
2022-12-20T20:51:43.745Z,-27.32
2022-12-20T20:54:47.907Z,-26.54
2022-12-20T20:57:52.379Z,-26.68
2022-12-20T21:01:00.811Z,-27.08
2022-12-20T21:04:06.592Z,-27.27
2022-12-20T21:07:11.321Z,-27.42
2022-12-20T21:10:15.596Z,-27.51
2022-12-20T21:13:20.293Z,-27.16
2022-12-20T21:16:25.284Z,-26.75
2022-12-20T21:19:29.381Z,-27.06
2022-12-20T21:22:33.816Z,-27.21
2022-12-20T21:25:38.476Z,-27.52
2022-12-20T21:28:42.906Z,-27.27
2022-12-20T21:31:47.291Z,-27.25
2022-12-20T21:34:52.231Z,-27.06
2022-12-20T21:37:56.871Z,-26.81
2022-12-20T21:41:11.795Z,-26.93
2022-12-20T21:44:16.534Z,-27.39
2022-12-20T21:47:21.289Z,-27.24
2022-12-20T21:50:25.947Z,-26.77
2022-12-20T21:53:32.161Z,-26.71
2022-12-20T21:56:36.810Z,-26.99
2022-12-20T21:59:41.449Z,-27.08
2022-12-20T22:02:46.151Z,-26.98
2022-12-20T22:05:53.330Z,-26.66
2022-12-20T22:09:02.178Z,-26.63
2022-12-20T22:12:07.028Z,-26.22
2022-12-20T22:15:12.333Z,-26.48
2022-12-20T22:18:17.048Z,-26.42
2022-12-20T22:21:24.490Z,-26.57
2022-12-20T22:24:29.120Z,-26.71
2022-12-20T22:27:36.616Z,-26.63
2022-12-20T22:30:44.689Z,-26.42
2022-12-20T22:33:50.174Z,-26.63
2022-12-20T22:36:55.336Z,-26.31
2022-12-20T22:39:59.828Z,-26.35
2022-12-20T22:43:05.486Z,-26.10
2022-12-20T22:46:13.333Z,-26.14
2022-12-20T22:49:19.174Z,-26.19
2022-12-20T22:52:23.582Z,-26.70
2022-12-20T22:55:28.238Z,-26.45
2022-12-20T22:58:33.906Z,-26.41
2022-12-20T23:01:38.546Z,-26.30
2022-12-20T23:04:43.227Z,-26.59
2022-12-20T23:07:47.429Z,-26.30
2022-12-20T23:11:10.521Z,-26.57
2022-12-20T23:14:39.666Z,-26.74
2022-12-20T23:17:44.118Z,-26.54
2022-12-20T23:21:13.467Z,-26.40
2022-12-20T23:24:18.087Z,-26.39
2022-12-20T23:27:22.555Z,-26.59
2022-12-20T23:30:27.534Z,-26.48
2022-12-20T23:33:32.276Z,-26.53
2022-12-20T23:36:36.986Z,-26.32
2022-12-20T23:39:41.493Z,-25.70
2022-12-20T23:42:46.652Z,-25.50
2022-12-20T23:45:51.476Z,-24.85
2022-12-20T23:48:56.250Z,-23.90
2022-12-20T23:52:00.275Z,-23.18
2022-12-20T23:55:04.918Z,-23.09
2022-12-20T23:58:09.061Z,-23.00
